sensor_id;sensor_type;location;lat;lon;timestamp;pressure;altitude;pressure_sealevel;temperature;humidity
60820;BME280;46641;48.904;9.126;2023-06-14T00:02:30;98089.75;;;25.55;35.61
60820;BME280;46641;48.904;9.126;2023-06-14T00:07:33;98086.50;;;25.48;35.73
60820;BME280;46641;48.904;9.126;2023-06-14T00:12:24;98088.03;;;25.44;35.61
60820;BME280;46641;48.904;9.126;2023-06-14T00:17:14;98088.00;;;25.39;35.68
60820;BME280;46641;48.904;9.126;2023-06-14T00:22:07;98093.31;;;25.34;35.75
60820;BME280;46641;48.904;9.126;2023-06-14T00:26:57;98095.97;;;25.29;35.77
60820;BME280;46641;48.904;9.126;2023-06-14T00:31:47;98091.59;;;25.23;35.70
60820;BME280;46641;48.904;9.126;2023-06-14T00:36:38;98089.66;;;25.18;35.88
60820;BME280;46641;48.904;9.126;2023-06-14T00:41:28;98088.81;;;25.12;35.84
60820;BME280;46641;48.904;9.126;2023-06-14T00:46:18;98092.47;;;25.06;36.16
60820;BME280;46641;48.904;9.126;2023-06-14T00:51:09;98095.09;;;25.01;35.92
60820;BME280;46641;48.904;9.126;2023-06-14T00:56:00;98087.00;;;24.96;36.24
60820;BME280;46641;48.904;9.126;2023-06-14T01:00:50;98086.13;;;24.90;36.19
60820;BME280;46641;48.904;9.126;2023-06-14T01:05:41;98089.56;;;24.86;36.06
60820;BME280;46641;48.904;9.126;2023-06-14T01:11:07;98087.06;;;24.79;36.20
60820;BME280;46641;48.904;9.126;2023-06-14T01:16:00;98093.19;;;24.75;36.58
60820;BME280;46641;48.904;9.126;2023-06-14T01:20:51;98088.59;;;24.70;36.15
60820;BME280;46641;48.904;9.126;2023-06-14T01:25:45;98098.16;;;24.66;36.39
60820;BME280;46641;48.904;9.126;2023-06-14T01:30:45;98093.25;;;24.58;36.21
60820;BME280;46641;48.904;9.126;2023-06-14T01:35:36;98092.94;;;24.54;36.50
60820;BME280;46641;48.904;9.126;2023-06-14T01:40:27;98092.63;;;24.51;36.92
60820;BME280;46641;48.904;9.126;2023-06-14T01:45:18;98095.47;;;24.44;36.58
60820;BME280;46641;48.904;9.126;2023-06-14T01:50:09;98093.50;;;24.39;36.81
60820;BME280;46641;48.904;9.126;2023-06-14T01:55:00;98098.78;;;24.34;36.45
60820;BME280;46641;48.904;9.126;2023-06-14T01:59:53;98104.06;;;24.29;36.90
60820;BME280;46641;48.904;9.126;2023-06-14T02:04:43;98099.69;;;24.23;36.49
60820;BME280;46641;48.904;9.126;2023-06-14T02:09:34;98096.94;;;24.18;36.82
60820;BME280;46641;48.904;9.126;2023-06-14T02:14:25;98100.94;;;24.15;36.80
60820;BME280;46641;48.904;9.126;2023-06-14T02:19:16;98093.88;;;24.09;36.81
60820;BME280;46641;48.904;9.126;2023-06-14T02:24:07;98091.91;;;24.05;37.32
60820;BME280;46641;48.904;9.126;2023-06-14T02:28:57;98104.97;;;24.01;36.95
60820;BME280;46641;48.904;9.126;2023-06-14T02:33:47;98096.09;;;23.95;36.87
60820;BME280;46641;48.904;9.126;2023-06-14T02:38:38;98102.16;;;23.91;36.92
60820;BME280;46641;48.904;9.126;2023-06-14T02:43:28;98108.25;;;23.86;37.31
60820;BME280;46641;48.904;9.126;2023-06-14T02:48:19;98105.47;;;23.81;37.53
60820;BME280;46641;48.904;9.126;2023-06-14T02:53:09;98095.53;;;23.76;37.15
60820;BME280;46641;48.904;9.126;2023-06-14T02:58:00;98099.75;;;23.72;37.20
60820;BME280;46641;48.904;9.126;2023-06-14T03:02:50;98101.25;;;23.68;37.41
60820;BME280;46641;48.904;9.126;2023-06-14T03:07:41;98107.53;;;23.62;37.79
60820;BME280;46641;48.904;9.126;2023-06-14T03:12:35;98108.25;;;23.58;37.45
60820;BME280;46641;48.904;9.126;2023-06-14T03:17:26;98107.94;;;23.54;37.35
60820;BME280;46641;48.904;9.126;2023-06-14T03:22:23;98109.47;;;23.50;37.77
60820;BME280;46641;48.904;9.126;2023-06-14T03:27:15;98112.84;;;23.45;37.77
60820;BME280;46641;48.904;9.126;2023-06-14T03:32:06;98112.78;;;23.40;37.64
60820;BME280;46641;48.904;9.126;2023-06-14T03:36:57;98116.16;;;23.36;37.52
60820;BME280;46641;48.904;9.126;2023-06-14T03:41:48;98125.69;;;23.31;37.93
60820;BME280;46641;48.904;9.126;2023-06-14T03:46:38;98133.59;;;23.26;37.79
60820;BME280;46641;48.904;9.126;2023-06-14T03:51:29;98137.00;;;23.22;37.96
60820;BME280;46641;48.904;9.126;2023-06-14T03:56:19;98144.91;;;23.17;37.77
60820;BME280;46641;48.904;9.126;2023-06-14T04:01:09;98149.91;;;23.13;37.82
60820;BME280;46641;48.904;9.126;2023-06-14T04:06:02;98154.09;;;23.09;37.89
60820;BME280;46641;48.904;9.126;2023-06-14T04:10:53;98158.31;;;23.05;38.31
60820;BME280;46641;48.904;9.126;2023-06-14T04:15:43;98161.91;;;22.99;38.20
60820;BME280;46641;48.904;9.126;2023-06-14T04:20:35;98156.00;;;22.97;38.03
60820;BME280;46641;48.904;9.126;2023-06-14T04:25:26;98168.16;;;22.93;37.95
60820;BME280;46641;48.904;9.126;2023-06-14T04:30:18;98181.97;;;22.90;38.15
60820;BME280;46641;48.904;9.126;2023-06-14T04:35:08;98178.97;;;22.86;38.31
60820;BME280;46641;48.904;9.126;2023-06-14T04:39:59;98187.44;;;22.83;38.38
60820;BME280;46641;48.904;9.126;2023-06-14T04:44:49;98188.16;;;22.78;38.25
60820;BME280;46641;48.904;9.126;2023-06-14T04:49:39;98183.84;;;22.77;38.30
60820;BME280;46641;48.904;9.126;2023-06-14T04:54:30;98193.38;;;22.73;38.58
60820;BME280;46641;48.904;9.126;2023-06-14T04:59:23;98200.56;;;22.73;38.39
60820;BME280;46641;48.904;9.126;2023-06-14T05:04:17;98202.09;;;22.69;38.58
60820;BME280;46641;48.904;9.126;2023-06-14T05:09:07;98204.97;;;22.67;38.48
60820;BME280;46641;48.904;9.126;2023-06-14T05:13:58;98205.44;;;22.64;38.47
60820;BME280;46641;48.904;9.126;2023-06-14T05:18:48;98213.94;;;22.49;38.07
60820;BME280;46641;48.904;9.126;2023-06-14T05:23:39;98210.06;;;22.45;38.08
60820;BME280;46641;48.904;9.126;2023-06-14T05:28:29;98215.88;;;22.30;38.05
60820;BME280;46641;48.904;9.126;2023-06-14T05:33:20;98222.00;;;22.31;38.47
60820;BME280;46641;48.904;9.126;2023-06-14T05:38:11;98217.13;;;22.28;38.39
60820;BME280;46641;48.904;9.126;2023-06-14T05:43:01;98225.72;;;22.30;38.51
60820;BME280;46641;48.904;9.126;2023-06-14T05:47:52;98224.44;;;22.32;38.36
60820;BME280;46641;48.904;9.126;2023-06-14T05:52:44;98222.81;;;22.31;38.55
60820;BME280;46641;48.904;9.126;2023-06-14T05:57:34;98232.91;;;22.29;38.47
60820;BME280;46641;48.904;9.126;2023-06-14T06:02:25;98229.22;;;22.30;38.44
60820;BME280;46641;48.904;9.126;2023-06-14T06:07:15;98232.44;;;22.32;38.57
60820;BME280;46641;48.904;9.126;2023-06-14T06:12:06;98228.97;;;22.32;38.52
60820;BME280;46641;48.904;9.126;2023-06-14T06:16:57;98232.44;;;22.32;38.60
60820;BME280;46641;48.904;9.126;2023-06-14T06:21:47;98235.47;;;22.36;38.58
60820;BME280;46641;48.904;9.126;2023-06-14T06:26:37;98243.69;;;22.34;38.66
60820;BME280;46641;48.904;9.126;2023-06-14T06:31:28;98248.22;;;22.34;38.75
60820;BME280;46641;48.904;9.126;2023-06-14T06:36:19;98237.78;;;22.32;38.76
60820;BME280;46641;48.904;9.126;2023-06-14T06:41:10;98248.69;;;22.31;38.91
60820;BME280;46641;48.904;9.126;2023-06-14T06:46:00;98254.81;;;22.31;38.94
60820;BME280;46641;48.904;9.126;2023-06-14T06:50:50;98250.88;;;22.34;38.92
60820;BME280;46641;48.904;9.126;2023-06-14T06:55:41;98265.63;;;22.36;38.92
60820;BME280;46641;48.904;9.126;2023-06-14T07:00:31;98260.97;;;22.32;38.96
60820;BME280;46641;48.904;9.126;2023-06-14T07:05:22;98273.63;;;22.36;38.88
60820;BME280;46641;48.904;9.126;2023-06-14T07:10:12;98278.72;;;22.38;38.88
60820;BME280;46641;48.904;9.126;2023-06-14T07:15:03;98280.13;;;22.40;38.81
60820;BME280;46641;48.904;9.126;2023-06-14T07:19:53;98280.13;;;22.40;39.34
60820;BME280;46641;48.904;9.126;2023-06-14T07:24:44;98285.44;;;22.40;39.04
60820;BME280;46641;48.904;9.126;2023-06-14T07:29:34;98293.00;;;22.44;38.80
60820;BME280;46641;48.904;9.126;2023-06-14T07:34:25;98291.38;;;22.43;38.97
60820;BME280;46641;48.904;9.126;2023-06-14T07:39:16;98297.28;;;22.45;39.14
60820;BME280;46641;48.904;9.126;2023-06-14T07:44:06;98299.72;;;22.46;39.09
60820;BME280;46641;48.904;9.126;2023-06-14T07:48:57;98296.59;;;22.49;39.13
60820;BME280;46641;48.904;9.126;2023-06-14T07:53:48;98291.03;;;22.51;39.26
60820;BME280;46641;48.904;9.126;2023-06-14T07:58:38;98290.56;;;22.54;38.97
60820;BME280;46641;48.904;9.126;2023-06-14T08:03:28;98294.03;;;22.54;38.94
60820;BME280;46641;48.904;9.126;2023-06-14T08:08:20;98290.31;;;22.55;39.08
60820;BME280;46641;48.904;9.126;2023-06-14T08:13:10;98296.03;;;22.59;39.23
60820;BME280;46641;48.904;9.126;2023-06-14T08:18:00;98299.88;;;22.63;39.02
60820;BME280;46641;48.904;9.126;2023-06-14T08:22:51;98290.94;;;22.69;39.24
60820;BME280;46641;48.904;9.126;2023-06-14T08:27:45;98298.59;;;22.77;38.91
60820;BME280;46641;48.904;9.126;2023-06-14T08:32:35;98306.94;;;22.81;39.11
60820;BME280;46641;48.904;9.126;2023-06-14T08:37:26;98305.66;;;22.83;39.11
60820;BME280;46641;48.904;9.126;2023-06-14T08:42:18;98302.06;;;22.90;39.04
60820;BME280;46641;48.904;9.126;2023-06-14T08:47:11;98302.81;;;22.97;39.31
60820;BME280;46641;48.904;9.126;2023-06-14T08:52:02;98312.09;;;23.06;39.09
60820;BME280;46641;48.904;9.126;2023-06-14T08:56:54;98307.44;;;23.13;39.23
60820;BME280;46641;48.904;9.126;2023-06-14T09:01:48;98304.63;;;23.20;39.16
60820;BME280;46641;48.904;9.126;2023-06-14T09:06:39;98312.31;;;23.28;39.46
60820;BME280;46641;48.904;9.126;2023-06-14T09:11:30;98303.44;;;23.39;39.30
60820;BME280;46641;48.904;9.126;2023-06-14T09:16:21;98308.19;;;23.49;39.56
60820;BME280;46641;48.904;9.126;2023-06-14T09:21:11;98298.88;;;23.63;39.30
60820;BME280;46641;48.904;9.126;2023-06-14T09:26:06;98321.63;;;23.77;39.28
60820;BME280;46641;48.904;9.126;2023-06-14T09:30:57;98297.53;;;23.89;39.59
60820;BME280;46641;48.904;9.126;2023-06-14T09:35:51;98301.31;;;24.05;39.60
60820;BME280;46641;48.904;9.126;2023-06-14T09:40:41;98311.72;;;24.18;40.07
60820;BME280;46641;48.904;9.126;2023-06-14T09:45:32;98306.94;;;24.37;40.10
60820;BME280;46641;48.904;9.126;2023-06-14T09:50:23;98304.31;;;24.54;40.05
60820;BME280;46641;48.904;9.126;2023-06-14T09:55:14;98305.94;;;24.72;40.17
60820;BME280;46641;48.904;9.126;2023-06-14T10:00:05;98300.00;;;24.53;35.04
60820;BME280;46641;48.904;9.126;2023-06-14T10:05:05;98310.16;;;24.51;32.86
60820;BME280;46641;48.904;9.126;2023-06-14T10:09:57;98301.81;;;24.64;32.45
60820;BME280;46641;48.904;9.126;2023-06-14T10:14:49;98290.81;;;24.83;34.27
60820;BME280;46641;48.904;9.126;2023-06-14T10:19:50;98297.41;;;25.31;35.97
60820;BME280;46641;48.904;9.126;2023-06-14T10:24:45;98292.88;;;25.75;36.37
60820;BME280;46641;48.904;9.126;2023-06-14T10:35:00;98287.78;;;26.28;36.53
60820;BME280;46641;48.904;9.126;2023-06-14T10:39:51;98278.81;;;26.44;36.68
60820;BME280;46641;48.904;9.126;2023-06-14T10:44:54;98284.06;;;26.61;37.19
60820;BME280;46641;48.904;9.126;2023-06-14T10:49:50;98283.94;;;26.78;37.24
60820;BME280;46641;48.904;9.126;2023-06-14T10:59:54;98293.25;;;27.08;37.56
60820;BME280;46641;48.904;9.126;2023-06-14T11:04:52;98289.06;;;27.22;37.34
60820;BME280;46641;48.904;9.126;2023-06-14T11:09:56;98289.13;;;27.37;37.84
60820;BME280;46641;48.904;9.126;2023-06-14T11:14:52;98286.72;;;27.41;32.83
60820;BME280;46641;48.904;9.126;2023-06-14T11:19:43;98283.78;;;26.95;34.48
60820;BME280;46641;48.904;9.126;2023-06-14T11:24:34;98288.59;;;27.35;35.33
60820;BME280;46641;48.904;9.126;2023-06-14T11:29:24;98295.72;;;27.67;35.66
60820;BME280;46641;48.904;9.126;2023-06-14T11:34:15;98289.31;;;27.83;35.81
60820;BME280;46641;48.904;9.126;2023-06-14T11:39:06;98290.44;;;27.98;36.14
60820;BME280;46641;48.904;9.126;2023-06-14T11:44:01;98291.78;;;28.10;35.97
60820;BME280;46641;48.904;9.126;2023-06-14T11:48:52;98289.13;;;28.20;36.19
60820;BME280;46641;48.904;9.126;2023-06-14T11:53:43;98281.34;;;28.34;36.14
60820;BME280;46641;48.904;9.126;2023-06-14T11:58:33;98278.69;;;28.45;36.04
60820;BME280;46641;48.904;9.126;2023-06-14T12:03:24;98271.69;;;28.54;35.97
60820;BME280;46641;48.904;9.126;2023-06-14T12:08:15;98280.81;;;28.63;36.34
60820;BME280;46641;48.904;9.126;2023-06-14T12:13:07;98273.53;;;28.69;36.18
60820;BME280;46641;48.904;9.126;2023-06-14T12:17:58;98273.53;;;28.74;36.50
60820;BME280;46641;48.904;9.126;2023-06-14T12:22:56;98267.06;;;28.80;36.31
60820;BME280;46641;48.904;9.126;2023-06-14T12:27:46;98280.25;;;28.86;36.24
60820;BME280;46641;48.904;9.126;2023-06-14T12:32:37;98262.16;;;28.92;35.80
60820;BME280;46641;48.904;9.126;2023-06-14T12:37:27;98262.97;;;28.98;35.66
60820;BME280;46641;48.904;9.126;2023-06-14T12:42:17;98255.72;;;29.03;35.89
60820;BME280;46641;48.904;9.126;2023-06-14T12:47:08;98268.66;;;29.06;36.04
60820;BME280;46641;48.904;9.126;2023-06-14T12:51:58;98267.81;;;29.11;35.46
60820;BME280;46641;48.904;9.126;2023-06-14T12:56:49;98267.00;;;29.16;35.16
60820;BME280;46641;48.904;9.126;2023-06-14T13:01:41;98271.56;;;29.15;35.76
60820;BME280;46641;48.904;9.126;2023-06-14T13:06:31;98264.84;;;29.18;35.32
60820;BME280;46641;48.904;9.126;2023-06-14T13:11:22;98256.75;;;29.23;35.17
60820;BME280;46641;48.904;9.126;2023-06-14T13:16:12;98266.19;;;29.25;35.60
60820;BME280;46641;48.904;9.126;2023-06-14T13:21:04;98269.38;;;29.27;35.11
60820;BME280;46641;48.904;9.126;2023-06-14T13:25:54;98261.59;;;29.26;35.40
60820;BME280;46641;48.904;9.126;2023-06-14T13:30:44;98260.78;;;29.25;35.23
60820;BME280;46641;48.904;9.126;2023-06-14T13:35:35;98271.56;;;29.25;35.13
60820;BME280;46641;48.904;9.126;2023-06-14T13:40:25;98269.94;;;29.24;35.45
60820;BME280;46641;48.904;9.126;2023-06-14T13:45:16;98266.19;;;29.20;35.13
60820;BME280;46641;48.904;9.126;2023-06-14T13:50:07;98257.28;;;29.20;35.15
60820;BME280;46641;48.904;9.126;2023-06-14T13:54:57;98266.19;;;29.20;35.10
60820;BME280;46641;48.904;9.126;2023-06-14T13:59:47;98258.38;;;29.19;34.81
60820;BME280;46641;48.904;9.126;2023-06-14T14:04:39;98250.84;;;29.16;34.80
60820;BME280;46641;48.904;9.126;2023-06-14T14:09:29;98254.09;;;29.13;35.11
60820;BME280;46641;48.904;9.126;2023-06-14T14:14:20;98254.34;;;29.11;35.45
60820;BME280;46641;48.904;9.126;2023-06-14T14:19:10;98248.94;;;29.11;35.42
60820;BME280;46641;48.904;9.126;2023-06-14T14:24:01;98245.19;;;29.12;35.01
60820;BME280;46641;48.904;9.126;2023-06-14T14:28:51;98255.16;;;29.11;35.00
60820;BME280;46641;48.904;9.126;2023-06-14T14:33:42;98254.63;;;29.09;35.36
60820;BME280;46641;48.904;9.126;2023-06-14T14:38:32;98253.00;;;29.08;35.22
60820;BME280;46641;48.904;9.126;2023-06-14T14:43:22;98250.31;;;29.08;35.10
60820;BME280;46641;48.904;9.126;2023-06-14T14:48:13;98256.53;;;29.09;35.41
60820;BME280;46641;48.904;9.126;2023-06-14T14:53:03;98255.69;;;29.08;35.42
60820;BME280;46641;48.904;9.126;2023-06-14T14:57:53;98254.09;;;29.07;35.57
60820;BME280;46641;48.904;9.126;2023-06-14T15:02:44;98264.94;;;28.46;33.16
60820;BME280;46641;48.904;9.126;2023-06-14T15:07:34;98258.97;;;28.75;33.38
60820;BME280;46641;48.904;9.126;2023-06-14T15:12:24;98256.28;;;28.90;33.55
60820;BME280;46641;48.904;9.126;2023-06-14T15:17:14;98252.19;;;28.98;33.41
60820;BME280;46641;48.904;9.126;2023-06-14T15:22:05;98251.09;;;28.99;33.42
60820;BME280;46641;48.904;9.126;2023-06-14T15:26:55;98251.69;;;28.96;32.93
60820;BME280;46641;48.904;9.126;2023-06-14T15:31:46;98250.59;;;28.97;33.51
60820;BME280;46641;48.904;9.126;2023-06-14T15:36:37;98254.91;;;28.98;33.77
60820;BME280;46641;48.904;9.126;2023-06-14T15:41:27;98250.31;;;28.98;33.85
60820;BME280;46641;48.904;9.126;2023-06-14T15:46:20;98249.50;;;28.98;33.33
60820;BME280;46641;48.904;9.126;2023-06-14T15:51:11;98246.28;;;28.96;33.45
60820;BME280;46641;48.904;9.126;2023-06-14T15:56:01;98246.28;;;28.96;33.35
60820;BME280;46641;48.904;9.126;2023-06-14T16:00:52;98255.44;;;28.95;33.72
60820;BME280;46641;48.904;9.126;2023-06-14T16:05:42;98257.06;;;28.96;34.16
60820;BME280;46641;48.904;9.126;2023-06-14T16:10:32;98252.75;;;28.95;34.02
60820;BME280;46641;48.904;9.126;2023-06-14T16:15:22;98251.69;;;28.96;33.32
60820;BME280;46641;48.904;9.126;2023-06-14T16:20:13;98250.34;;;28.73;33.41
60820;BME280;46641;48.904;9.126;2023-06-14T16:25:03;98260.31;;;28.82;32.88
60820;BME280;46641;48.904;9.126;2023-06-14T16:29:54;98263.00;;;28.82;33.08
60820;BME280;46641;48.904;9.126;2023-06-14T16:34:45;98260.31;;;28.82;32.46
60820;BME280;46641;48.904;9.126;2023-06-14T16:39:35;98267.59;;;28.82;32.92
60820;BME280;46641;48.904;9.126;2023-06-14T16:44:25;98269.75;;;28.80;32.63
60820;BME280;46641;48.904;9.126;2023-06-14T16:49:16;98275.16;;;28.80;33.01
60820;BME280;46641;48.904;9.126;2023-06-14T16:54:06;98271.91;;;28.78;32.87
60820;BME280;46641;48.904;9.126;2023-06-14T16:58:57;98276.50;;;28.72;32.10
60820;BME280;46641;48.904;9.126;2023-06-14T17:03:48;98287.56;;;28.71;32.74
60820;BME280;46641;48.904;9.126;2023-06-14T17:08:40;98287.81;;;28.74;32.53
60820;BME280;46641;48.904;9.126;2023-06-14T17:13:31;98289.41;;;28.75;32.58
60820;BME280;46641;48.904;9.126;2023-06-14T17:18:21;98295.59;;;28.76;32.44
60820;BME280;46641;48.904;9.126;2023-06-14T17:23:12;98296.97;;;28.73;32.39
60820;BME280;46641;48.904;9.126;2023-06-14T17:28:02;98300.72;;;28.72;32.06
60820;BME280;46641;48.904;9.126;2023-06-14T17:32:56;98304.78;;;28.75;32.96
60820;BME280;46641;48.904;9.126;2023-06-14T17:37:46;98306.38;;;28.76;32.18
60820;BME280;46641;48.904;9.126;2023-06-14T17:42:36;98307.22;;;28.71;32.77
60820;BME280;46641;48.904;9.126;2023-06-14T17:47:27;98312.03;;;28.69;31.78
60820;BME280;46641;48.904;9.126;2023-06-14T17:52:17;98314.75;;;28.64;31.14
60820;BME280;46641;48.904;9.126;2023-06-14T17:57:08;98317.47;;;28.54;31.88
60820;BME280;46641;48.904;9.126;2023-06-14T18:01:58;98323.38;;;28.51;31.81
60820;BME280;46641;48.904;9.126;2023-06-14T18:06:49;98335.75;;;28.47;31.43
60820;BME280;46641;48.904;9.126;2023-06-14T18:11:39;98336.00;;;28.40;32.27
60820;BME280;46641;48.904;9.126;2023-06-14T18:16:30;98347.59;;;28.40;31.57
60820;BME280;46641;48.904;9.126;2023-06-14T18:21:20;98341.38;;;28.35;31.87
60820;BME280;46641;48.904;9.126;2023-06-14T18:26:11;98352.38;;;28.33;32.33
60820;BME280;46641;48.904;9.126;2023-06-14T18:31:01;98345.13;;;28.34;31.68
60820;BME280;46641;48.904;9.126;2023-06-14T18:35:51;98342.16;;;28.30;32.24
60820;BME280;46641;48.904;9.126;2023-06-14T18:40:42;98358.84;;;28.27;32.18
60820;BME280;46641;48.904;9.126;2023-06-14T18:45:32;98357.47;;;28.19;31.81
60820;BME280;46641;48.904;9.126;2023-06-14T18:50:22;98364.22;;;28.12;32.29
60820;BME280;46641;48.904;9.126;2023-06-14T18:55:12;98362.03;;;28.09;31.85
60820;BME280;46641;48.904;9.126;2023-06-14T19:00:03;98362.81;;;28.04;31.99
60820;BME280;46641;48.904;9.126;2023-06-14T19:04:55;98366.31;;;28.00;31.98
60820;BME280;46641;48.904;9.126;2023-06-14T19:09:45;98371.13;;;27.98;32.12
60820;BME280;46641;48.904;9.126;2023-06-14T19:14:35;98373.31;;;27.95;32.22
60820;BME280;46641;48.904;9.126;2023-06-14T19:19:26;98375.72;;;27.92;32.68
60820;BME280;46641;48.904;9.126;2023-06-14T19:24:16;98383.47;;;27.88;32.09
60820;BME280;46641;48.904;9.126;2023-06-14T19:29:06;98389.41;;;27.85;31.93
60820;BME280;46641;48.904;9.126;2023-06-14T19:33:57;98390.47;;;27.79;32.32
60820;BME280;46641;48.904;9.126;2023-06-14T19:38:47;98397.16;;;27.77;32.60
60820;BME280;46641;48.904;9.126;2023-06-14T19:43:38;98410.81;;;27.75;32.79
60820;BME280;46641;48.904;9.126;2023-06-14T19:48:28;98419.41;;;27.72;32.89
60820;BME280;46641;48.904;9.126;2023-06-14T19:53:18;98419.97;;;27.69;33.21
60820;BME280;46641;48.904;9.126;2023-06-14T19:58:10;98424.78;;;27.67;33.14
60820;BME280;46641;48.904;9.126;2023-06-14T20:03:00;98429.06;;;27.63;33.23
60820;BME280;46641;48.904;9.126;2023-06-14T20:07:50;98431.47;;;27.59;33.33
60820;BME280;46641;48.904;9.126;2023-06-14T20:12:41;98435.72;;;27.55;33.08
60820;BME280;46641;48.904;9.126;2023-06-14T20:17:31;98445.13;;;27.53;33.69
60820;BME280;46641;48.904;9.126;2023-06-14T20:22:22;98442.41;;;27.47;33.16
60820;BME280;46641;48.904;9.126;2023-06-14T20:27:12;98441.31;;;27.43;33.52
60820;BME280;46641;48.904;9.126;2023-06-14T20:32:02;98450.16;;;27.39;33.22
60820;BME280;46641;48.904;9.126;2023-06-14T20:36:54;98446.63;;;27.33;33.35
60820;BME280;46641;48.904;9.126;2023-06-14T20:41:44;98449.84;;;27.30;33.53
60820;BME280;46641;48.904;9.126;2023-06-14T20:46:35;98448.72;;;27.26;33.87
60820;BME280;46641;48.904;9.126;2023-06-14T20:51:27;98451.09;;;27.22;33.99
60820;BME280;46641;48.904;9.126;2023-06-14T20:56:17;98453.25;;;27.20;34.09
60820;BME280;46641;48.904;9.126;2023-06-14T21:01:08;98451.31;;;27.16;34.17
60820;BME280;46641;48.904;9.126;2023-06-14T21:05:58;98457.19;;;27.13;34.26
60820;BME280;46641;48.904;9.126;2023-06-14T21:10:54;98448.25;;;27.07;34.06
60820;BME280;46641;48.904;9.126;2023-06-14T21:15:46;98447.16;;;27.03;34.25
60820;BME280;46641;48.904;9.126;2023-06-14T21:20:36;98451.44;;;26.99;34.42
60820;BME280;46641;48.904;9.126;2023-06-14T21:25:27;98444.94;;;26.95;34.61
60820;BME280;46641;48.904;9.126;2023-06-14T21:30:17;98445.69;;;26.90;34.46
60820;BME280;46641;48.904;9.126;2023-06-14T21:35:08;98442.72;;;26.87;34.45
60820;BME280;46641;48.904;9.126;2023-06-14T21:39:58;98448.06;;;26.82;34.64
60820;BME280;46641;48.904;9.126;2023-06-14T21:44:48;98447.75;;;26.78;34.67
60820;BME280;46641;48.904;9.126;2023-06-14T21:49:41;98454.69;;;26.74;34.66
60820;BME280;46641;48.904;9.126;2023-06-14T21:54:31;98453.56;;;26.70;34.67
60820;BME280;46641;48.904;9.126;2023-06-14T21:59:22;98462.41;;;26.65;34.59
60820;BME280;46641;48.904;9.126;2023-06-14T22:04:12;98461.25;;;26.61;34.57
60820;BME280;46641;48.904;9.126;2023-06-14T22:09:02;98456.09;;;26.54;34.62
60820;BME280;46641;48.904;9.126;2023-06-14T22:13:53;98460.34;;;26.50;34.77
60820;BME280;46641;48.904;9.126;2023-06-14T22:18:43;98462.94;;;26.45;34.85
60820;BME280;46641;48.904;9.126;2023-06-14T22:23:35;98459.16;;;26.41;34.92
60820;BME280;46641;48.904;9.126;2023-06-14T22:28:28;98457.47;;;26.35;34.79
60820;BME280;46641;48.904;9.126;2023-06-14T22:33:28;98463.59;;;26.30;35.02
60820;BME280;46641;48.904;9.126;2023-06-14T22:38:18;98457.34;;;26.25;34.96
60820;BME280;46641;48.904;9.126;2023-06-14T22:43:09;98464.28;;;26.21;35.15
60820;BME280;46641;48.904;9.126;2023-06-14T22:47:59;98474.94;;;26.16;35.10
60820;BME280;46641;48.904;9.126;2023-06-14T22:52:50;98473.25;;;26.09;35.37
60820;BME280;46641;48.904;9.126;2023-06-14T22:57:40;98470.25;;;26.06;35.16
60820;BME280;46641;48.904;9.126;2023-06-14T23:02:35;98473.69;;;26.01;35.35
60820;BME280;46641;48.904;9.126;2023-06-14T23:07:25;98480.06;;;25.95;35.03
60820;BME280;46641;48.904;9.126;2023-06-14T23:12:17;98479.97;;;25.90;35.31
60820;BME280;46641;48.904;9.126;2023-06-14T23:17:08;98476.16;;;25.86;35.57
60820;BME280;46641;48.904;9.126;2023-06-14T23:21:58;98479.59;;;25.81;35.55
60820;BME280;46641;48.904;9.126;2023-06-14T23:26:49;98482.16;;;25.76;35.48
60820;BME280;46641;48.904;9.126;2023-06-14T23:31:39;98481.31;;;25.71;35.59
60820;BME280;46641;48.904;9.126;2023-06-14T23:36:30;98479.59;;;25.64;35.57
60820;BME280;46641;48.904;9.126;2023-06-14T23:41:21;98485.38;;;25.56;34.98
60820;BME280;46641;48.904;9.126;2023-06-14T23:46:21;98480.44;;;25.48;35.25
60820;BME280;46641;48.904;9.126;2023-06-14T23:51:13;98478.72;;;25.42;35.33
60820;BME280;46641;48.904;9.126;2023-06-14T23:56:05;98482.13;;;25.37;35.20
